Time;durP1;ratioP1;P1;durP2;ratioP2;P2;SDS_P1;SDS_P2;PMS_P1;PMS_P2;Temp;Humidity;BMP_temperature;BMP_pressure;BME280_temperature;BME280_humidity;BME280_pressure;Samples;Min_cycle;Max_cycle;Signal;HPM_P1;HPM_P2
2021/12/29 00:00:56;;;;;;;58.00;27.17;;;;;;;2.64;100.00;92431.63;5012254;28;20046;-84
2021/12/29 00:03:23;;;;;;;44.58;24.40;;;;;;;2.64;100.00;92436.69;5012189;28;20485;-84
2021/12/29 00:05:50;;;;;;;44.83;24.27;;;;;;;2.46;100.00;92391.47;5012068;28;20050;-84
2021/12/29 00:08:17;;;;;;;45.05;24.02;;;;;;;2.64;100.00;92418.94;5012129;28;20038;-84
2021/12/29 00:10:46;;;;;;;47.97;23.77;;;;;;;2.72;100.00;92433.25;5012225;28;20053;-84
2021/12/29 00:13:13;;;;;;;47.80;23.60;;;;;;;2.59;100.00;92438.97;5012169;28;20373;-84
2021/12/29 00:15:40;;;;;;;63.25;30.52;;;;;;;2.43;100.00;92413.84;5012041;28;20041;-84
2021/12/29 00:18:07;;;;;;;49.15;24.45;;;;;;;2.61;100.00;92426.13;5012280;28;20131;-84
2021/12/29 00:20:34;;;;;;;43.28;26.15;;;;;;;2.66;100.00;92422.09;5011908;28;20045;-84
2021/12/29 00:23:03;;;;;;;42.80;23.30;;;;;;;2.71;100.00;92413.94;5011976;28;20057;-84
2021/12/29 00:25:30;;;;;;;44.70;25.45;;;;;;;2.79;100.00;92420.66;5011854;28;20045;-83
2021/12/29 00:27:59;;;;;;;45.35;23.85;;;;;;;2.82;100.00;92425.34;5012233;28;20476;-84
2021/12/29 00:30:27;;;;;;;54.83;28.00;;;;;;;2.84;100.00;92425.16;5011862;28;20493;-84
2021/12/29 00:32:54;;;;;;;68.25;33.05;;;;;;;2.90;100.00;92430.31;5011616;28;20057;-84
2021/12/29 00:35:21;;;;;;;79.70;38.50;;;;;;;2.84;100.00;92420.09;5011741;28;20049;-84
2021/12/29 00:37:47;;;;;;;80.07;38.38;;;;;;;2.89;100.00;92430.47;5011808;28;20100;-84
2021/12/29 00:40:15;;;;;;;61.30;32.65;;;;;;;2.82;100.00;92422.81;5011689;28;20053;-84
2021/12/29 00:42:42;;;;;;;58.67;29.13;;;;;;;2.88;100.00;92422.06;5011668;28;20107;-84
2021/12/29 00:45:11;;;;;;;62.30;30.80;;;;;;;2.82;100.00;92425.34;5011669;28;20099;-84
2021/12/29 00:47:38;;;;;;;61.65;30.30;;;;;;;2.75;100.00;92414.34;5011993;28;20086;-84
2021/12/29 00:50:09;;;;;;;61.28;29.00;;;;;;;2.69;100.00;92422.69;5011392;28;20088;-84
2021/12/29 00:52:36;;;;;;;51.17;27.23;;;;;;;2.43;100.00;92429.84;5011641;28;20151;-84
2021/12/29 00:55:05;;;;;;;61.15;33.25;;;;;;;2.46;100.00;92426.19;5011441;28;20053;-84
2021/12/29 00:57:31;;;;;;;65.32;36.03;;;;;;;2.62;100.00;92423.41;5011457;28;20048;-84
2021/12/29 00:59:59;;;;;;;66.88;32.05;;;;;;;2.71;100.00;92424.09;5011297;28;20412;-84
2021/12/29 01:02:28;;;;;;;56.08;30.00;;;;;;;2.72;100.00;92412.19;5010534;28;20053;-84
2021/12/29 01:04:54;;;;;;;61.15;31.85;;;;;;;2.84;100.00;92425.97;5011167;28;20056;-84
2021/12/29 01:07:21;;;;;;;63.95;31.95;;;;;;;2.87;100.00;92425.59;5011430;28;20213;-84
2021/12/29 01:09:48;;;;;;;53.88;27.95;;;;;;;2.65;100.00;92385.00;5010245;28;20034;-84
2021/12/29 01:12:15;;;;;;;48.78;28.15;;;;;;;2.92;100.00;92408.06;5008812;28;20050;-84
2021/12/29 01:14:51;;;;;;;47.67;26.98;;;;;;;2.94;100.00;92406.16;5011062;28;20132;-84
2021/12/29 01:17:18;;;;;;;40.63;24.33;;;;;;;2.97;100.00;92405.00;5011090;28;20065;-84
2021/12/29 01:19:46;;;;;;;44.20;22.95;;;;;;;2.91;100.00;92387.94;5011230;28;20139;-84
2021/12/29 01:22:13;;;;;;;40.58;23.13;;;;;;;3.01;100.00;92401.13;5011189;28;20052;-84
2021/12/29 01:24:40;;;;;;;33.42;20.65;;;;;;;3.03;100.00;92396.66;5011069;28;20060;-84
2021/12/29 01:27:06;;;;;;;33.70;18.65;;;;;;;3.05;100.00;92386.31;5011016;28;20064;-84
2021/12/29 01:29:33;;;;;;;32.10;19.42;;;;;;;3.09;100.00;92392.59;5011210;28;20067;-84
2021/12/29 01:32:00;;;;;;;33.95;20.30;;;;;;;3.11;100.00;92395.75;5010903;28;20037;-84
2021/12/29 01:34:28;;;;;;;33.88;19.45;;;;;;;3.00;100.00;92384.31;5010932;28;20053;-84
2021/12/29 01:36:56;;;;;;;33.45;19.88;;;;;;;3.08;100.00;92393.56;5010958;28;20050;-84
2021/12/29 01:39:23;;;;;;;36.60;22.23;;;;;;;3.11;100.00;92394.94;5010825;28;20046;-84
2021/12/29 01:41:54;;;;;;;38.63;21.40;;;;;;;3.07;100.00;92387.69;5010840;28;20448;-84
2021/12/29 01:44:24;;;;;;;34.75;19.38;;;;;;;3.11;100.00;92377.19;5010985;28;20054;-84
2021/12/29 01:46:52;;;;;;;38.08;19.98;;;;;;;3.12;100.00;92374.47;5010815;28;20069;-84
2021/12/29 01:49:19;;;;;;;35.67;21.27;;;;;;;3.13;100.00;92370.97;5010922;28;20088;-84
2021/12/29 01:51:51;;;;;;;39.47;22.60;;;;;;;3.15;100.00;92370.78;5010935;28;20469;-84
2021/12/29 01:54:24;;;;;;;35.45;21.52;;;;;;;3.17;100.00;92358.69;5010673;28;20050;-84
2021/12/29 01:56:54;;;;;;;43.47;21.92;;;;;;;3.17;100.00;92356.94;5010771;28;20089;-83
2021/12/29 01:59:21;;;;;;;41.17;22.63;;;;;;;3.19;100.00;92357.53;5011248;28;20049;-84
2021/12/29 02:01:48;;;;;;;33.33;19.85;;;;;;;3.21;100.00;92349.72;5010739;28;20053;-84
2021/12/29 02:04:15;;;;;;;33.97;18.65;;;;;;;3.20;100.00;92341.31;5010673;28;20046;-84
2021/12/29 02:06:42;;;;;;;35.58;19.10;;;;;;;3.21;100.00;92332.72;5010512;28;20041;-84
2021/12/29 02:09:10;;;;;;;30.05;18.10;;;;;;;2.96;100.00;92283.41;5010014;28;20092;-84
2021/12/29 02:11:41;;;;;;;28.52;18.08;;;;;;;3.24;100.00;92313.03;5009023;28;20042;-84
2021/12/29 02:14:09;;;;;;;35.45;18.42;;;;;;;3.25;100.00;92319.69;5010316;28;20041;-84
2021/12/29 02:16:36;;;;;;;29.00;17.17;;;;;;;3.29;100.00;92323.44;5013447;28;20042;-84
2021/12/29 02:19:08;;;;;;;28.75;17.50;;;;;;;3.30;100.00;92317.38;5013737;28;20060;-84
2021/12/29 02:21:36;;;;;;;31.23;20.95;;;;;;;3.31;100.00;92311.31;5014400;28;20038;-84
2021/12/29 02:24:17;;;;;;;28.88;19.90;;;;;;;3.34;100.00;92313.50;5014235;28;20046;-84
2021/12/29 02:26:45;;;;;;;36.75;22.20;;;;;;;3.30;100.00;92307.22;5014095;28;20073;-84
2021/12/29 02:29:15;;;;;;;28.98;20.05;;;;;;;3.22;100.00;92305.63;5014039;28;20428;-84
2021/12/29 02:31:42;;;;;;;31.98;19.80;;;;;;;3.21;100.00;92311.66;5013815;28;20407;-84
2021/12/29 02:34:11;;;;;;;37.53;21.85;;;;;;;2.93;100.00;92320.84;5013464;28;20045;-84
2021/12/29 02:36:43;;;;;;;38.15;23.23;;;;;;;2.49;100.00;92315.06;5014029;28;20057;-85
2021/12/29 02:39:12;;;;;;;40.72;25.30;;;;;;;2.46;100.00;92319.72;5013869;28;20555;-82
2021/12/29 02:41:43;;;;;;;39.50;26.48;;;;;;;2.39;100.00;92317.13;5013777;28;20042;-83
2021/12/29 02:44:16;;;;;;;45.17;29.33;;;;;;;2.17;100.00;92316.34;5013314;28;20081;-83
2021/12/29 02:46:43;;;;;;;42.70;25.80;;;;;;;2.39;100.00;92322.19;5013886;28;20057;-83
2021/12/29 02:49:10;;;;;;;46.67;27.00;;;;;;;2.45;100.00;92301.19;5013650;28;20096;-83
2021/12/29 02:51:37;;;;;;;39.97;26.50;;;;;;;2.67;100.00;92319.69;5013393;28;20053;-83
2021/12/29 02:54:05;;;;;;;45.17;30.00;;;;;;;2.77;100.00;92316.03;5014018;28;20050;-83
2021/12/29 02:56:32;;;;;;;44.58;27.90;;;;;;;2.65;100.00;92323.38;5013276;28;20654;-83
2021/12/29 02:58:59;;;;;;;48.15;26.35;;;;;;;2.29;100.00;92316.63;5013670;28;20054;-83
2021/12/29 03:01:27;;;;;;;42.17;23.67;;;;;;;2.42;100.00;92331.19;5013302;28;20065;-83
2021/12/29 03:03:55;;;;;;;40.92;25.08;;;;;;;2.47;100.00;92322.06;5013357;28;20058;-83
2021/12/29 03:06:22;;;;;;;34.63;22.02;;;;;;;2.21;100.00;92305.66;5013237;28;20046;-83
2021/12/29 03:08:51;;;;;;;46.40;24.23;;;;;;;2.27;100.00;92325.19;5013193;28;20412;-83
2021/12/29 03:11:19;;;;;;;44.03;24.65;;;;;;;2.19;100.00;92312.66;5013012;28;20046;-83
2021/12/29 03:13:46;;;;;;;51.38;26.75;;;;;;;2.17;100.00;92321.41;5013307;28;20054;-83
2021/12/29 03:16:13;;;;;;;54.53;29.88;;;;;;;1.75;100.00;92295.84;5013098;28;20054;-82
2021/12/29 03:18:41;;;;;;;61.50;31.52;;;;;;;1.87;100.00;92317.97;5013166;28;20053;-83
2021/12/29 03:21:07;;;;;;;62.03;31.48;;;;;;;2.12;100.00;92316.84;5013355;28;20049;-83
2021/12/29 03:23:34;;;;;;;63.13;32.58;;;;;;;2.26;100.00;92293.22;5012795;28;20058;-83
2021/12/29 03:26:02;;;;;;;64.97;30.20;;;;;;;2.30;100.00;92293.66;5012120;28;20046;-83
2021/12/29 03:28:30;;;;;;;68.15;33.92;;;;;;;2.45;100.00;92300.41;5012978;28;20045;-83
2021/12/29 03:30:57;;;;;;;60.63;31.25;;;;;;;2.39;100.00;92296.84;5012939;28;20050;-83
2021/12/29 03:33:28;;;;;;;79.47;36.67;;;;;;;2.43;100.00;92295.50;5012849;28;20054;-83
2021/12/29 03:36:01;;;;;;;84.68;34.25;;;;;;;2.57;100.00;92293.88;5012697;28;20049;-83
2021/12/29 03:38:30;;;;;;;71.82;32.47;;;;;;;2.73;100.00;92292.81;5012519;28;20096;-83
2021/12/29 03:40:58;;;;;;;63.22;30.65;;;;;;;2.77;100.00;92283.06;5012971;28;20496;-83
2021/12/29 03:43:26;;;;;;;58.25;32.40;;;;;;;2.88;100.00;92279.25;5012702;28;20046;-83
2021/12/29 03:45:55;;;;;;;61.40;30.52;;;;;;;3.01;100.00;92289.47;5012458;28;20088;-83
2021/12/29 03:48:25;;;;;;;69.97;29.92;;;;;;;3.00;100.00;92277.78;5012523;28;20136;-83
2021/12/29 03:50:52;;;;;;;61.83;28.90;;;;;;;3.14;100.00;92280.41;5012264;28;20057;-83
2021/12/29 03:53:19;;;;;;;61.83;28.75;;;;;;;3.21;100.00;92276.91;5012856;28;20112;-83
2021/12/29 03:55:48;;;;;;;62.35;27.15;;;;;;;3.15;100.00;92267.50;5012248;28;20046;-83
2021/12/29 03:58:15;;;;;;;68.40;27.25;;;;;;;3.26;100.00;92276.34;5012544;28;20112;-83
2021/12/29 04:00:42;;;;;;;52.75;25.20;;;;;;;3.30;100.00;92276.75;5012320;28;20049;-83
2021/12/29 04:03:11;;;;;;;63.70;25.80;;;;;;;3.21;100.00;92258.38;5012201;28;20066;-83
2021/12/29 04:05:37;;;;;;;61.55;24.00;;;;;;;3.21;100.00;92248.97;5012263;28;20061;-83
2021/12/29 04:08:05;;;;;;;53.53;22.50;;;;;;;3.27;100.00;92265.22;5012318;28;20058;-83
2021/12/29 04:10:33;;;;;;;53.75;26.02;;;;;;;3.37;100.00;92272.50;5012191;28;20050;-83
2021/12/29 04:13:01;;;;;;;57.45;29.65;;;;;;;3.39;100.00;92279.91;5011976;28;20092;-83
2021/12/29 04:15:29;;;;;;;65.28;29.95;;;;;;;3.33;100.00;92269.56;5012440;28;20120;-83
2021/12/29 04:17:58;;;;;;;60.85;30.15;;;;;;;3.39;100.00;92278.19;5012026;28;20054;-83
2021/12/29 04:23:15;;;;;;;53.97;29.77;;;;;;;3.42;100.00;92279.56;5011980;28;20095;-83
2021/12/29 04:25:45;;;;;;;60.08;30.17;;;;;;;3.42;100.00;92287.19;5011827;28;20049;-83
2021/12/29 04:28:16;;;;;;;65.00;31.40;;;;;;;3.38;100.00;92280.91;5011667;28;20068;-83
2021/12/29 04:30:44;;;;;;;65.63;32.15;;;;;;;3.37;100.00;92277.56;5011816;28;20046;-83
2021/12/29 04:33:11;;;;;;;57.60;30.75;;;;;;;3.35;100.00;92271.91;5011729;28;20053;-83
2021/12/29 04:35:40;;;;;;;70.60;30.85;;;;;;;3.41;100.00;92277.97;5013605;28;20424;-84
2021/12/29 04:38:07;;;;;;;59.60;28.00;;;;;;;3.31;100.00;92265.63;5011877;28;20046;-83
2021/12/29 04:40:35;;;;;;;58.25;28.85;;;;;;;3.19;100.00;92257.75;5011676;28;20045;-83
2021/12/29 04:43:02;;;;;;;53.05;28.98;;;;;;;3.17;100.00;92275.72;5011425;28;20053;-83
2021/12/29 04:45:29;;;;;;;58.42;29.90;;;;;;;3.19;100.00;92283.13;5011577;28;20057;-83
2021/12/29 04:47:56;;;;;;;48.83;27.33;;;;;;;3.20;100.00;92292.34;5011470;28;20511;-83
2021/12/29 04:50:29;;;;;;;57.00;27.95;;;;;;;3.18;100.00;92284.09;5011414;28;20054;-83
2021/12/29 04:52:59;;;;;;;55.97;28.95;;;;;;;3.25;100.00;92284.16;5011370;28;20077;-83
2021/12/29 04:55:27;;;;;;;68.97;33.63;;;;;;;3.09;100.00;92275.88;5011208;28;20496;-83
2021/12/29 04:57:54;;;;;;;50.97;29.83;;;;;;;3.19;100.00;92291.53;5011390;28;20312;-83
2021/12/29 05:00:24;;;;;;;61.35;33.60;;;;;;;3.29;100.00;92292.97;5011392;28;20061;-84
2021/12/29 05:02:51;;;;;;;69.65;36.33;;;;;;;3.36;100.00;92296.31;5011324;28;20056;-83
2021/12/29 05:05:23;;;;;;;80.10;43.67;;;;;;;3.36;100.00;92286.16;5011037;28;20057;-83
2021/12/29 05:10:36;;;;;;;75.20;38.60;;;;;;;3.12;100.00;92270.44;5011435;28;20100;-83
2021/12/29 05:13:04;;;;;;;68.53;36.35;;;;;;;3.31;100.00;92289.28;5011248;28;20069;-83
2021/12/29 05:15:31;;;;;;;67.75;35.63;;;;;;;3.40;100.00;92294.19;5011139;28;20412;-83
2021/12/29 05:17:58;;;;;;;69.03;37.53;;;;;;;3.41;100.00;92296.53;5010999;28;20049;-83
2021/12/29 05:20:27;;;;;;;65.82;35.83;;;;;;;3.50;100.00;92298.91;5010938;28;20053;-83
2021/12/29 05:22:54;;;;;;;69.72;33.58;;;;;;;3.56;100.00;92291.31;5010946;28;20046;-83
2021/12/29 05:25:21;;;;;;;64.38;33.78;;;;;;;3.57;100.00;92289.56;5011252;28;20116;-83
2021/12/29 05:27:49;;;;;;;67.30;33.60;;;;;;;3.59;100.00;92290.97;5010953;28;20050;-83
2021/12/29 05:30:16;;;;;;;67.35;35.00;;;;;;;3.73;100.00;92301.94;5011016;28;20644;-83
2021/12/29 05:32:43;;;;;;;71.70;37.47;;;;;;;3.75;100.00;92291.56;5010831;28;20064;-83
2021/12/29 05:35:11;;;;;;;66.18;35.80;;;;;;;3.80;100.00;92285.94;5010881;28;20054;-83
2021/12/29 05:37:38;;;;;;;65.57;36.92;;;;;;;3.82;100.00;92278.91;5010928;28;20489;-83
2021/12/29 05:40:06;;;;;;;74.07;34.17;;;;;;;3.84;100.00;92287.13;5010860;28;20050;-83
2021/12/29 05:42:34;;;;;;;63.45;33.88;;;;;;;3.73;100.00;92279.09;5010784;28;20069;-83
2021/12/29 05:45:04;;;;;;;64.60;34.60;;;;;;;3.81;100.00;92290.03;5010657;28;20390;-83
2021/12/29 05:47:31;;;;;;;68.30;37.58;;;;;;;3.84;100.00;92290.44;5010692;28;20054;-83
2021/12/29 05:49:57;;;;;;;78.85;39.47;;;;;;;3.82;100.00;92282.25;5014985;28;20054;-83
2021/12/29 05:52:24;;;;;;;81.43;41.65;;;;;;;3.83;100.00;92280.47;5014668;28;20493;-83
2021/12/29 05:54:51;;;;;;;81.38;40.53;;;;;;;3.84;100.00;92294.75;5014863;28;20125;-83
2021/12/29 05:57:18;;;;;;;90.65;45.42;;;;;;;3.84;100.00;92289.69;5014599;28;20092;-83
2021/12/29 05:59:45;;;;;;;87.55;44.70;;;;;;;3.86;100.00;92292.78;5014551;28;20053;-83
2021/12/29 06:02:13;;;;;;;92.05;44.67;;;;;;;3.89;100.00;92289.84;5014391;28;20435;-83
2021/12/29 06:04:40;;;;;;;80.60;40.25;;;;;;;3.89;100.00;92305.09;5014555;28;20042;-83
2021/12/29 06:07:07;;;;;;;73.32;38.50;;;;;;;3.91;100.00;92310.78;5014491;28;20112;-83
2021/12/29 06:09:34;;;;;;;69.00;37.95;;;;;;;3.92;100.00;92307.28;5014410;28;20050;-83
2021/12/29 06:12:01;;;;;;;71.22;38.22;;;;;;;3.83;100.00;92285.53;5015252;28;20496;-83
2021/12/29 06:14:27;;;;;;;82.30;40.47;;;;;;;3.97;100.00;92289.69;5014223;28;20061;-83
2021/12/29 06:16:54;;;;;;;70.53;37.20;;;;;;;3.86;100.00;92280.88;5014493;28;20058;-83
2021/12/29 06:19:23;;;;;;;58.97;35.50;;;;;;;3.95;100.00;92298.50;5014595;28;20460;-84
2021/12/29 06:21:49;;;;;;;77.07;38.80;;;;;;;3.92;100.00;92306.47;5014025;28;20050;-84
2021/12/29 06:24:16;;;;;;;61.45;34.58;;;;;;;3.92;100.00;92316.66;5014177;28;20050;-84
2021/12/29 06:26:43;;;;;;;61.00;34.50;;;;;;;3.92;100.00;92312.34;5013959;28;20050;-84
2021/12/29 06:29:11;;;;;;;67.43;37.40;;;;;;;3.95;100.00;92312.00;5014123;28;20045;-84
2021/12/29 06:31:39;;;;;;;87.03;42.10;;;;;;;3.89;100.00;92317.81;5014217;28;20050;-84
2021/12/29 06:34:06;;;;;;;77.97;41.90;;;;;;;3.70;100.00;92326.94;5013962;28;20601;-84
2021/12/29 06:36:34;;;;;;;75.75;42.83;;;;;;;3.66;100.00;92310.50;5013959;28;20042;-84
2021/12/29 06:39:01;;;;;;;85.22;45.63;;;;;;;3.74;100.00;92308.59;5013766;28;20054;-84
2021/12/29 06:41:28;;;;;;;81.13;46.55;;;;;;;3.76;100.00;92305.06;5013698;28;20050;-85
2021/12/29 06:43:55;;;;;;;86.25;46.78;;;;;;;3.89;100.00;92330.50;5013748;28;20050;-84
2021/12/29 06:46:22;;;;;;;85.38;46.53;;;;;;;3.76;100.00;92333.81;5013839;28;20112;-84
2021/12/29 06:48:49;;;;;;;206.32;105.60;;;;;;;3.54;100.00;92328.03;5013858;28;20100;-84
2021/12/29 06:51:15;;;;;;;160.18;90.35;;;;;;;3.52;100.00;92335.81;5013731;28;20096;-84
2021/12/29 06:53:44;;;;;;;120.43;69.78;;;;;;;3.65;100.00;92337.66;5013446;28;20054;-84
2021/12/29 06:56:11;;;;;;;93.47;46.70;;;;;;;3.76;100.00;92341.44;5013329;28;20456;-84
2021/12/29 06:58:38;;;;;;;80.43;47.25;;;;;;;3.78;100.00;92333.59;5013730;28;20472;-84
2021/12/29 07:01:06;;;;;;;80.07;40.15;;;;;;;3.70;100.00;92317.56;5009699;28;20428;-84
2021/12/29 07:03:32;;;;;;;85.65;47.55;;;;;;;3.82;100.00;92338.13;5013375;28;20042;-84
2021/12/29 07:06:00;;;;;;;98.20;50.95;;;;;;;3.86;100.00;92344.41;5013241;28;20073;-84
2021/12/29 07:08:27;;;;;;;87.53;48.30;;;;;;;3.88;100.00;92334.03;5013319;28;20046;-84
2021/12/29 07:10:55;;;;;;;86.65;47.75;;;;;;;3.92;100.00;92330.16;5013110;28;20045;-84
2021/12/29 07:13:22;;;;;;;92.40;48.05;;;;;;;4.02;100.00;92337.41;5013057;28;20492;-84
2021/12/29 07:15:48;;;;;;;89.32;48.00;;;;;;;4.13;100.00;92351.31;5013076;28;20107;-84
2021/12/29 07:18:16;;;;;;;77.15;41.50;;;;;;;4.13;100.00;92341.94;5013140;28;20058;-84
2021/12/29 07:20:44;;;;;;;81.88;45.92;;;;;;;4.12;100.00;92345.44;5013019;28;20069;-84
2021/12/29 07:23:11;;;;;;;81.07;49.70;;;;;;;4.16;100.00;92350.16;5012049;28;20049;-84
2021/12/29 07:25:50;;;;;;;90.22;50.78;;;;;;;4.16;100.00;92347.63;5012846;28;20058;-84
2021/12/29 07:28:40;;;;;;;89.60;51.35;;;;;;;4.14;100.00;92340.19;5013135;28;20417;-84
2021/12/29 07:31:07;;;;;;;89.97;49.33;;;;;;;4.07;100.00;92319.06;5012766;28;20054;-83
2021/12/29 07:33:34;;;;;;;86.35;49.17;;;;;;;4.17;100.00;92333.94;5011990;28;20097;-83
2021/12/29 07:36:01;;;;;;;75.63;42.60;;;;;;;4.26;100.00;92345.50;5011449;28;20057;-83
2021/12/29 07:38:28;;;;;;;76.72;44.20;;;;;;;4.31;100.00;92348.25;5011830;28;20050;-83
2021/12/29 07:40:55;;;;;;;72.78;37.78;;;;;;;4.36;100.00;92352.75;5002758;28;20096;-83
2021/12/29 07:43:22;;;;;;;89.45;42.63;;;;;;;4.25;100.00;92326.91;5012578;28;20054;-83
2021/12/29 07:45:53;;;;;;;71.88;40.80;;;;;;;4.44;100.00;92350.00;5012477;28;20100;-83
2021/12/29 07:48:25;;;;;;;63.42;36.92;;;;;;;4.47;100.00;92343.75;5012427;28;20046;-83
2021/12/29 07:50:52;;;;;;;63.35;35.55;;;;;;;4.47;100.00;92348.84;5012475;28;20053;-83
2021/12/29 07:53:18;;;;;;;63.15;35.58;;;;;;;4.47;100.00;92352.19;5012090;28;20050;-84
2021/12/29 07:55:46;;;;;;;57.38;36.03;;;;;;;4.51;100.00;92350.03;5012174;28;20393;-84
2021/12/29 07:58:14;;;;;;;71.45;36.97;;;;;;;4.53;100.00;92345.53;5011988;28;20045;-83
2021/12/29 08:00:41;;;;;;;83.20;44.40;;;;;;;4.51;100.00;92344.94;5008955;28;20046;-84
2021/12/29 08:03:11;;;;;;;101.65;56.70;;;;;;;4.53;100.00;92350.63;5011535;28;20049;-84
2021/12/29 08:06:32;;;;;;;99.38;53.80;;;;;;;4.25;100.00;92310.88;5011253;28;20049;-85
2021/12/29 08:08:59;;;;;;;112.05;63.53;;;;;;;4.50;100.00;92338.31;5005372;28;20038;-84
2021/12/29 08:11:25;;;;;;;160.80;83.40;;;;;;;4.58;100.00;92343.19;5011072;28;20492;-84
2021/12/29 08:13:52;;;;;;;157.23;84.93;;;;;;;4.63;100.00;92348.47;5011317;28;20492;-84
2021/12/29 08:16:19;;;;;;;184.40;97.13;;;;;;;4.55;100.00;92356.31;5011281;28;20058;-84
2021/12/29 08:18:48;;;;;;;143.15;79.40;;;;;;;4.50;100.00;92351.00;5011468;28;20041;-84
2021/12/29 08:21:15;;;;;;;134.00;74.72;;;;;;;4.54;100.00;92354.75;5011368;28;20045;-84
2021/12/29 08:23:42;;;;;;;130.00;71.13;;;;;;;4.60;100.00;92351.41;5011307;28;20049;-83
2021/12/29 08:26:09;;;;;;;123.60;68.35;;;;;;;4.68;100.00;92356.31;5011921;28;20046;-83
2021/12/29 08:28:36;;;;;;;114.43;67.05;;;;;;;4.71;100.00;92346.75;5007280;28;20500;-84
2021/12/29 08:31:04;;;;;;;121.38;73.65;;;;;;;4.59;100.00;92354.16;5011261;28;20054;-83
2021/12/29 08:33:33;;;;;;;108.28;68.25;;;;;;;4.19;100.00;92340.41;5011069;28;20077;-83
2021/12/29 08:36:01;;;;;;;109.63;64.45;;;;;;;4.18;100.00;92348.19;5010646;28;20550;-83
2021/12/29 08:38:28;;;;;;;105.75;66.32;;;;;;;4.34;100.00;92349.59;5010909;28;20069;-82
2021/12/29 08:40:55;;;;;;;115.78;73.35;;;;;;;4.39;100.00;92348.06;5011059;28;20416;-82
2021/12/29 08:43:22;;;;;;;118.00;70.10;;;;;;;4.45;100.00;92354.16;5010963;28;20046;-82
2021/12/29 08:45:49;;;;;;;109.28;66.50;;;;;;;4.40;100.00;92353.94;5010708;28;20046;-82
2021/12/29 08:48:16;;;;;;;89.10;49.55;;;;;;;4.31;100.00;92339.81;5010585;28;20520;-82
2021/12/29 08:50:43;;;;;;;85.15;49.38;;;;;;;4.11;100.00;92321.00;4991716;28;20050;-83
2021/12/29 08:53:12;;;;;;;67.43;38.65;;;;;;;3.98;100.00;92323.53;4992068;28;20457;-83
2021/12/29 08:55:46;;;;;;;254.85;117.18;;;;;;;4.17;100.00;92336.47;4991690;28;20097;-83
2021/12/29 08:58:13;;;;;;;91.32;47.85;;;;;;;4.29;100.00;92345.09;4991848;28;20097;-83
2021/12/29 09:00:40;;;;;;;67.90;40.05;;;;;;;4.38;100.00;92331.25;4996092;28;20053;-83
2021/12/29 09:03:07;;;;;;;77.05;44.67;;;;;;;4.53;100.00;92335.34;5011152;28;20049;-83
2021/12/29 09:05:34;;;;;;;76.32;42.45;;;;;;;4.50;100.00;92300.16;5011256;28;20142;-83
2021/12/29 09:08:01;;;;;;;66.40;36.75;;;;;;;4.75;100.00;92322.47;5011651;28;20092;-83
2021/12/29 09:10:29;;;;;;;64.93;37.75;;;;;;;4.84;100.00;92323.84;5011522;28;20041;-82
2021/12/29 09:12:56;;;;;;;73.10;37.40;;;;;;;4.95;100.00;92317.34;5011031;28;20073;-83
2021/12/29 09:15:24;;;;;;;55.75;31.83;;;;;;;5.01;100.00;92308.16;5011128;28;20072;-83
2021/12/29 09:17:52;;;;;;;52.67;32.22;;;;;;;5.06;100.00;92293.84;5011450;28;20057;-83
2021/12/29 09:20:26;;;;;;;56.63;32.17;;;;;;;5.10;100.00;92291.72;5011177;28;20054;-83
2021/12/29 09:22:55;;;;;;;56.70;33.33;;;;;;;5.28;100.00;92297.94;5010284;28;20520;-83
2021/12/29 09:25:23;;;;;;;51.90;30.95;;;;;;;5.26;100.00;92292.25;5011770;28;20054;-83
2021/12/29 09:27:52;;;;;;;47.92;31.23;;;;;;;5.19;100.00;92282.09;5011237;28;20054;-84
2021/12/29 09:30:20;;;;;;;58.67;34.10;;;;;;;5.33;100.00;92282.84;5010890;28;20049;-83
2021/12/29 09:32:47;;;;;;;66.65;37.92;;;;;;;5.47;100.00;92288.69;5011134;28;20054;-83
2021/12/29 09:35:16;;;;;;;55.47;32.88;;;;;;;5.40;100.00;92272.63;5011034;28;20049;-83
2021/12/29 09:37:43;;;;;;;72.65;38.38;;;;;;;5.42;100.00;92286.72;5010767;28;20145;-83
2021/12/29 09:40:12;;;;;;;50.38;29.23;;;;;;;5.21;100.00;92282.66;4992438;28;20092;-83
2021/12/29 09:42:39;;;;;;;53.97;30.38;;;;;;;5.35;100.00;92276.56;4997113;28;20049;-83
2021/12/29 09:45:09;;;;;;;50.05;29.13;;;;;;;5.66;100.00;92286.25;5011182;28;20419;-83
2021/12/29 09:47:37;;;;;;;45.03;26.55;;;;;;;5.64;100.00;92272.97;5010876;28;20066;-83
2021/12/29 09:50:08;;;;;;;54.30;32.70;;;;;;;5.78;100.00;92279.53;5011173;28;20065;-83
2021/12/29 09:52:35;;;;;;;49.70;28.02;;;;;;;5.68;100.00;92251.16;5011130;28;20061;-83
2021/12/29 09:55:07;;;;;;;47.60;27.42;;;;;;;5.66;100.00;92287.06;5010428;28;20049;-84
2021/12/29 09:57:34;;;;;;;48.83;28.45;;;;;;;5.78;100.00;92276.22;5010696;28;20058;-83
2021/12/29 10:00:02;;;;;;;49.70;32.45;;;;;;;5.94;100.00;92269.88;5010925;28;20046;-83
2021/12/29 10:02:30;;;;;;;50.78;31.27;;;;;;;6.12;100.00;92269.97;5010679;28;20520;-83
2021/12/29 10:04:58;;;;;;;61.15;34.83;;;;;;;6.21;100.00;92267.19;5010607;28;20088;-83
2021/12/29 10:07:26;;;;;;;54.85;35.58;;;;;;;6.34;100.00;92256.13;5010688;28;20415;-83
2021/12/29 10:09:54;;;;;;;72.82;41.17;;;;;;;6.41;100.00;92260.22;5010493;28;20414;-83
2021/12/29 10:12:22;;;;;;;65.38;40.22;;;;;;;6.53;100.00;92262.09;5011019;28;20123;-83
2021/12/29 10:14:50;;;;;;;59.47;37.25;;;;;;;6.45;100.00;92249.56;5010782;28;20054;-84
2021/12/29 10:17:18;;;;;;;57.80;35.65;;;;;;;6.51;100.00;92246.19;5010496;28;20054;-84
2021/12/29 10:19:47;;;;;;;63.90;35.65;;;;;;;6.51;100.00;92252.09;5010889;28;20057;-83
2021/12/29 10:22:21;;;;;;;62.42;35.70;;;;;;;6.61;100.00;92251.59;5010552;28;20097;-83
2021/12/29 10:24:48;;;;;;;81.50;38.78;;;;;;;6.72;100.00;92252.72;5010850;28;20080;-84
2021/12/29 10:27:18;;;;;;;54.42;32.20;;;;;;;6.80;100.00;92254.19;5010567;28;20065;-84
2021/12/29 10:29:45;;;;;;;58.60;32.22;;;;;;;6.89;100.00;92247.84;5010389;28;20056;-84
2021/12/29 10:32:12;;;;;;;58.38;30.00;;;;;;;6.90;100.00;92243.53;5010444;28;20416;-83
2021/12/29 10:34:39;;;;;;;65.30;30.85;;;;;;;6.82;100.00;92242.78;5012194;28;20053;-84
2021/12/29 10:37:11;;;;;;;67.03;30.83;;;;;;;6.73;100.00;92238.97;5013980;28;20493;-84
2021/12/29 10:39:40;;;;;;;67.10;32.88;;;;;;;6.85;100.00;92233.16;5013743;28;20046;-84
2021/12/29 10:42:10;;;;;;;57.67;30.65;;;;;;;6.85;100.00;92236.47;5014898;28;20135;-84
2021/12/29 10:44:39;;;;;;;85.03;36.85;;;;;;;6.75;100.00;92224.19;5013763;28;20141;-84
2021/12/29 10:47:14;;;;;;;78.47;39.75;;;;;;;6.48;100.00;92158.09;5013646;28;20049;-84
2021/12/29 10:49:51;;;;;;;73.40;37.53;;;;;;;7.00;100.00;92228.50;5014069;28;20054;-84
2021/12/29 10:52:32;;;;;;;68.28;33.05;;;;;;;7.11;100.00;92234.66;5013736;28;20053;-84
2021/12/29 10:54:59;;;;;;;57.35;29.08;;;;;;;6.99;100.00;92215.94;5014435;28;20050;-84
2021/12/29 10:57:26;;;;;;;46.63;22.08;;;;;;;7.09;100.00;92224.66;5013523;28;20057;-83
2021/12/29 10:59:58;;;;;;;50.80;25.27;;;;;;;7.09;100.00;92226.44;5014090;28;20511;-83
2021/12/29 11:02:28;;;;;;;64.65;27.58;;;;;;;7.17;100.00;92210.06;5013435;28;20493;-83
2021/12/29 11:04:56;;;;;;;56.95;26.27;;;;;;;7.40;100.00;92222.16;5013260;28;20058;-83
2021/12/29 11:07:27;;;;;;;50.03;25.42;;;;;;;7.44;100.00;92202.09;5013094;28;20053;-83
2021/12/29 11:09:56;;;;;;;42.63;22.15;;;;;;;7.69;100.00;92222.41;5012954;28;20108;-83
2021/12/29 11:12:25;;;;;;;49.17;21.35;;;;;;;7.81;100.00;92214.81;5012378;28;20140;-83
2021/12/29 11:14:53;;;;;;;41.80;20.75;;;;;;;7.93;100.00;92211.50;5013495;28;20401;-83
2021/12/29 11:17:25;;;;;;;44.28;19.90;;;;;;;7.89;100.00;92216.28;5013044;28;20050;-83
2021/12/29 11:19:56;;;;;;;44.75;19.42;;;;;;;8.00;100.00;92214.75;5013175;28;20065;-83
2021/12/29 11:22:25;;;;;;;44.05;20.30;;;;;;;7.92;100.00;92210.72;5013110;28;20042;-83
2021/12/29 11:24:58;;;;;;;48.38;20.20;;;;;;;7.78;100.00;92186.34;5012866;28;20053;-83
2021/12/29 11:27:27;;;;;;;43.92;20.63;;;;;;;7.94;100.00;92197.72;5013107;28;20061;-83